»·PEaware :: BAW9 CYYZ-EGKK

BAW9 :: CYYZ-EGKK

FLIGHT INFORMATION

Flight Status: Arrived
Operator:
British Airways
More flights by this operator :: More flights under this callsign
Pilot: Scott L. (17677)
Aircraft: BOEING 767-300
(B763)
More flights by this aircraft type
Origin: CYYZ Toronto/Pearson Intl
Canada
Destination: EGKK Gatwick
United Kingdom
More flights between these airports :: More routes between these airports
Route: VERDO6 LORKA Q907 MIILS RIKAL/M078F360 NATZ MALOT/N0461F360 NATZ GISTI/N0463F370 NORLA M140 MERLY L149 DIDEL N513 ELRIP N17 OTMET
File this flight plan on PilotEdge
Remarks: RMK / SIMBRIEF
Altitude:
(Current/Filed)
35,000ft
Speed:
(Current/Filed)
457kts
Departed: 23-Sep-20 08:57 AM
Arrived: 23-Sep-20 12:12 PM
Distance/Time
Traveled:
3270nm/3:15
Distance/Time
To Go:
Arrived

Flight Plot

Page will automatically refresh every two minutes.

Flight plan parsing failed; only flown route is shown


Map Options




Map Legend


Flown Route
Filed Route
Departure Airport
Arrival Airport
Navaid (VOR, NDB)
Fix

Horizontal Profiles

Position Reports

Time Latitude Longitude Heading Altitude Ground
Speed
23-Sep-20 08:56 43.737924 -79.243041 120 18489ft 473kts
23-Sep-20 08:57 43.710799 -79.063647 79 21476ft 474kts
23-Sep-20 08:58 43.758144 -78.898756 65 24736ft 458kts
23-Sep-20 08:59 43.786449 -78.725416 61 27464ft 450kts
23-Sep-20 09:00 43.840296 -78.568212 59 29991ft 444kts
23-Sep-20 09:01 43.894056 -78.411862 59 31004ft 441kts
23-Sep-20 09:01 43.937596 -78.284696 59 31013ft 447kts
23-Sep-20 09:03 44.003850 -78.090001 60 31009ft 492kts
23-Sep-20 09:04 44.062496 -77.916289 60 31001ft 489kts
23-Sep-20 09:04 44.110458 -77.773471 60 30997ft 490kts
23-Sep-20 09:05 44.167768 -77.601831 60 30995ft 490kts
23-Sep-20 09:07 44.244074 -77.406317 52 30995ft 485kts
23-Sep-20 09:07 44.304232 -77.272531 53 30991ft 485kts
23-Sep-20 09:08 44.376627 -77.110628 53 30979ft 485kts
23-Sep-20 09:09 44.448563 -76.948811 53 30972ft 483kts
23-Sep-20 09:10 44.519766 -76.787759 52 30973ft 477kts
23-Sep-20 09:11 44.590242 -76.627501 52 30973ft 478kts
23-Sep-20 09:12 44.660466 -76.466880 52 30973ft 477kts
23-Sep-20 09:13 44.730407 -76.306004 53 30968ft 478kts
23-Sep-20 09:14 44.790462 -76.138862 62 30918ft 484kts
23-Sep-20 09:15 44.840251 -75.960587 63 31365ft 487kts
23-Sep-20 09:16 44.888950 -75.783890 63 32911ft 487kts
23-Sep-20 09:17 44.937759 -75.605411 63 32899ft 481kts
23-Sep-20 09:18 44.985579 -75.429293 63 32899ft 482kts
23-Sep-20 09:19 45.033398 -75.251884 64 32908ft 483kts
23-Sep-20 09:20 45.081419 -75.072368 64 32921ft 482kts
23-Sep-20 09:21 45.128351 -74.895608 65 32929ft 480kts
23-Sep-20 09:22 45.175417 -74.716970 65 32931ft 479kts
23-Sep-20 09:23 45.221523 -74.540666 65 32929ft 480kts
23-Sep-20 09:24 45.267828 -74.362290 65 32928ft 480kts
23-Sep-20 09:25 45.313676 -74.184297 66 32867ft 480kts
23-Sep-20 09:26 45.359117 -74.006512 66 32858ft 480kts
23-Sep-20 09:27 45.404272 -73.828508 66 32863ft 481kts
23-Sep-20 09:28 45.449245 -73.649824 66 32864ft 480kts
23-Sep-20 09:29 45.493712 -73.471780 66 32861ft 479kts
23-Sep-20 09:30 45.538544 -73.290867 66 32853ft 480kts
23-Sep-20 09:31 45.583490 -73.108176 68 32853ft 487kts
23-Sep-20 09:32 45.628483 -72.923603 70 32851ft 483kts
23-Sep-20 09:33 45.672773 -72.740327 70 32843ft 485kts
23-Sep-20 09:34 45.717028 -72.555797 70 32824ft 484kts
23-Sep-20 09:35 45.760891 -72.371380 70 32810ft 485kts
23-Sep-20 09:36 45.804144 -72.188019 71 32814ft 484kts
23-Sep-20 09:37 45.847457 -72.002858 71 32815ft 485kts
23-Sep-20 09:38 45.890192 -71.818591 71 32815ft 485kts
23-Sep-20 09:39 45.932786 -71.633351 71 32817ft 484kts
23-Sep-20 09:40 45.975036 -71.448056 71 32818ft 485kts
23-Sep-20 09:41 46.016963 -71.262576 71 32780ft 485kts
23-Sep-20 09:42 46.058707 -71.076296 71 32762ft 486kts
23-Sep-20 09:43 46.100034 -70.890357 73 32757ft 492kts
23-Sep-20 09:44 46.141417 -70.702299 74 32754ft 488kts
23-Sep-20 09:45 46.182687 -70.513126 74 32750ft 489kts
23-Sep-20 09:46 46.223592 -70.323932 75 32752ft 489kts
23-Sep-20 09:47 46.264056 -70.135032 75 32753ft 489kts
23-Sep-20 09:48 46.304103 -69.946385 75 32709ft 489kts
23-Sep-20 09:49 46.344271 -69.755416 75 32657ft 489kts
23-Sep-20 09:50 46.384021 -69.564621 75 32663ft 490kts
23-Sep-20 09:51 46.423294 -69.374322 75 32659ft 490kts
23-Sep-20 09:52 46.462209 -69.184000 75 32657ft 488kts
23-Sep-20 09:53 46.500952 -68.992661 76 32649ft 489kts
23-Sep-20 09:54 46.539501 -68.800405 76 32622ft 490kts
23-Sep-20 09:55 46.577619 -68.608427 76 32617ft 490kts
23-Sep-20 09:56 46.615426 -68.416138 76 32615ft 489kts
23-Sep-20 09:57 46.652830 -68.223991 77 32618ft 490kts
23-Sep-20 09:58 46.690019 -68.031043 77 32616ft 489kts
23-Sep-20 09:59 46.726914 -67.837616 77 32618ft 490kts
23-Sep-20 10:00 46.763141 -67.645791 77 32615ft 490kts
23-Sep-20 10:01 46.799591 -67.450773 77 32602ft 490kts
23-Sep-20 10:02 46.835438 -67.256989 77 32597ft 489kts
23-Sep-20 10:03 46.871890 -67.063464 72 32594ft 495kts
23-Sep-20 10:04 46.949255 -66.892283 55 32584ft 503kts
23-Sep-20 10:05 47.032070 -66.724807 56 32502ft 502kts
23-Sep-20 10:06 47.113644 -66.556907 56 32477ft 503kts
23-Sep-20 10:07 47.195319 -66.387694 56 32477ft 503kts
23-Sep-20 10:08 47.276366 -66.218734 57 32476ft 503kts
23-Sep-20 10:09 47.357579 -66.048384 57 32477ft 502kts
23-Sep-20 10:10 47.437840 -65.878998 57 32478ft 502kts
23-Sep-20 10:11 47.529980 -65.683238 57 32478ft 502kts
23-Sep-20 10:12 47.689690 -65.340587 58 32484ft 502kts
23-Sep-20 10:13 47.848237 -64.996126 58 32486ft 502kts
23-Sep-20 10:14 48.003218 -64.655191 58 32445ft 486kts
23-Sep-20 10:15 48.159526 -64.306930 58 32437ft 504kts
23-Sep-20 10:16 48.316571 -63.952456 58 32440ft 503kts
23-Sep-20 10:17 48.471480 -63.598206 58 32449ft 502kts
23-Sep-20 10:18 48.625391 -63.241596 59 32442ft 502kts
23-Sep-20 10:19 48.778176 -62.882781 59 32446ft 505kts
23-Sep-20 10:20 48.930273 -62.520848 59 32288ft 504kts
23-Sep-20 10:21 49.079994 -62.159770 61 32350ft 494kts
23-Sep-20 10:22 49.226684 -61.800964 62 32333ft 496kts
23-Sep-20 10:23 49.372686 -61.439089 62 32337ft 496kts
23-Sep-20 10:24 49.517725 -61.074614 62 32343ft 498kts
23-Sep-20 10:25 49.663737 -60.702551 63 32348ft 503kts
23-Sep-20 10:26 49.808274 -60.328937 63 32347ft 503kts
23-Sep-20 10:27 49.950840 -59.955141 63 32348ft 502kts
23-Sep-20 10:28 50.092847 -59.577367 63 32315ft 503kts
23-Sep-20 10:29 50.234158 -59.195911 64 32287ft 503kts
23-Sep-20 10:30 50.374160 -58.812326 65 32345ft 518kts
23-Sep-20 10:31 50.516993 -58.415063 65 32429ft 519kts
23-Sep-20 10:32 50.658766 -58.014448 66 32459ft 520kts
23-Sep-20 10:33 50.798073 -57.614610 66 32462ft 520kts
23-Sep-20 10:34 50.936282 -57.211543 66 32460ft 518kts
23-Sep-20 10:35 51.074597 -56.801576 67 32488ft 539kts
23-Sep-20 10:36 51.214560 -56.379904 67 32477ft 533kts
23-Sep-20 10:38 51.353312 -55.954640 68 32481ft 532kts
23-Sep-20 10:39 51.490154 -55.527899 68 32489ft 534kts
23-Sep-20 10:40 51.626035 -55.096797 69 32467ft 535kts
23-Sep-20 10:41 51.765341 -54.646565 69 32501ft 567kts
23-Sep-20 10:42 51.899884 -54.188231 71 32487ft 561kts
23-Sep-20 10:43 52.032423 -53.722274 71 32507ft 561kts
23-Sep-20 10:44 52.142823 -53.327028 72 32464ft 561kts
23-Sep-20 10:45 52.158331 -53.270969 72 32459ft 561kts
23-Sep-20 10:46 52.174017 -53.214116 72 32456ft 560kts
23-Sep-20 10:47 52.187862 -53.163803 72 32459ft 560kts
23-Sep-20 10:48 52.202118 -53.111922 72 32463ft 560kts
23-Sep-20 10:49 52.215923 -53.061580 72 32462ft 560kts
23-Sep-20 10:50 52.242472 -52.964281 72 32465ft 560kts
23-Sep-20 10:51 52.416731 -52.316177 71 32482ft 559kts
23-Sep-20 10:52 52.596627 -51.627074 71 32488ft 559kts
23-Sep-20 10:53 52.771021 -50.938020 71 32488ft 556kts
23-Sep-20 10:54 52.942396 -50.239905 71 32482ft 554kts
23-Sep-20 10:54 53.093274 -49.628032 70 32560ft 571kts
23-Sep-20 10:55 53.225920 -49.088004 70 32673ft 572kts
23-Sep-20 10:57 53.365109 -48.506958 68 32700ft 571kts
23-Sep-20 10:57 53.463005 -48.088606 69 32681ft 572kts
23-Sep-20 10:58 53.578639 -47.583439 69 32832ft 570kts
23-Sep-20 10:59 53.691718 -47.077589 70 33073ft 570kts
23-Sep-20 11:00 53.803033 -46.567100 68 33087ft 573kts
23-Sep-20 11:01 53.911731 -46.056230 69 33075ft 573kts
23-Sep-20 11:02 53.990920 -45.675589 69 33089ft 574kts
23-Sep-20 11:03 54.053394 -45.370085 68 33094ft 573kts
23-Sep-20 11:04 54.194914 -44.660158 69 33083ft 574kts
23-Sep-20 11:05 54.319839 -44.010980 70 33074ft 574kts
23-Sep-20 11:06 54.461405 -43.247410 71 33117ft 574kts
23-Sep-20 11:07 54.828260 -41.101609 69 33091ft 570kts
23-Sep-20 11:08 55.081543 -38.849035 85 33054ft 603kts
23-Sep-20 11:09 55.100604 -36.510064 68 36392ft 571kts
23-Sep-20 11:10 55.064556 -34.206245 78 35206ft 585kts
23-Sep-20 11:11 55.052817 -31.933987 90 35132ft 587kts
23-Sep-20 11:12 55.021679 -29.756642 84 34875ft 569kts
23-Sep-20 11:13 54.553998 -27.603468 106 34711ft 593kts
23-Sep-20 11:14 54.267115 -25.459648 83 34813ft 557kts
23-Sep-20 11:15 53.764015 -23.439295 114 34592ft 579kts
23-Sep-20 11:16 53.376879 -21.430460 87 34773ft 549kts
23-Sep-20 11:17 52.874849 -19.541888 125 34701ft 559kts
23-Sep-20 11:18 52.565099 -18.626672 90 34568ft 542kts
23-Sep-20 11:19 52.578074 -18.399503 76 34567ft 530kts
23-Sep-20 11:20 52.551472 -18.158895 104 34561ft 554kts
23-Sep-20 11:21 52.546165 -17.914169 66 35597ft 517kts
23-Sep-20 11:22 52.615178 -17.722043 38 36523ft 476kts
23-Sep-20 11:23 52.771907 -17.001792 77 36577ft 527kts
23-Sep-20 11:24 52.865331 -16.051161 61 36582ft 508kts
23-Sep-20 11:25 52.987561 -15.107017 73 36548ft 518kts
23-Sep-20 11:26 52.995388 -14.151982 85 36565ft 516kts
23-Sep-20 11:27 52.895402 -13.206320 117 36588ft 529kts
23-Sep-20 11:28 52.720789 -12.301559 98 36616ft 518kts
23-Sep-20 11:29 52.552573 -11.378751 107 36584ft 519kts
23-Sep-20 11:30 52.380582 -10.468781 108 36563ft 512kts
23-Sep-20 11:31 52.203901 -9.574149 109 36573ft 513kts
23-Sep-20 11:32 52.020847 -8.688182 111 36599ft 506kts
23-Sep-20 11:33 51.832474 -7.815564 112 36620ft 507kts
23-Sep-20 11:34 51.638892 -6.954966 114 36638ft 502kts
23-Sep-20 11:35 51.503581 -6.091000 107 36642ft 502kts
23-Sep-20 11:36 51.368228 -5.217117 108 36692ft 501kts
23-Sep-20 11:37 51.189413 -4.526163 139 36699ft 468kts
23-Sep-20 11:38 51.079672 -4.423285 159 36682ft 452kts
23-Sep-20 11:39 50.984692 -4.282167 136 36681ft 484kts
23-Sep-20 11:40 50.899112 -4.109929 136 36648ft 502kts
23-Sep-20 11:41 50.825387 -3.913189 114 36658ft 531kts
23-Sep-20 11:42 50.778624 -3.688633 114 36647ft 532kts
23-Sep-20 11:43 50.731338 -3.464995 114 36649ft 532kts
23-Sep-20 11:44 50.683606 -3.241692 115 36638ft 531kts
23-Sep-20 11:45 50.641625 -3.015017 103 36531ft 545kts
23-Sep-20 11:46 50.661626 -2.776724 67 35263ft 558kts
23-Sep-20 11:47 50.691116 -2.539390 96 34055ft 546kts
23-Sep-20 11:48 50.673680 -2.301320 101 32563ft 543kts
23-Sep-20 11:49 50.662547 -2.062152 100 30749ft 542kts
23-Sep-20 11:50 50.663275 -1.823095 93 28341ft 534kts
23-Sep-20 11:51 50.665732 -1.591032 93 26046ft 515kts
23-Sep-20 11:52 50.665825 -1.367810 86 23764ft 501kts
23-Sep-20 11:53 50.708770 -1.159826 69 19261ft 472kts
23-Sep-20 11:54 50.755098 -0.977467 70 14206ft 422kts
23-Sep-20 11:55 50.796631 -0.812563 69 9224ft 382kts
23-Sep-20 11:56 50.821167 -0.668579 82 9002ft 315kts
23-Sep-20 11:57 50.837580 -0.527631 82 8993ft 313kts
23-Sep-20 11:58 50.873985 -0.406651 59 8007ft 292kts
23-Sep-20 11:59 50.915894 -0.296913 60 8011ft 286kts
23-Sep-20 12:00 50.957997 -0.188620 60 7765ft 288kts
23-Sep-20 12:01 51.000010 -0.081212 59 6331ft 272kts
23-Sep-20 12:02 51.039795 0.020893 59 4736ft 263kts
23-Sep-20 12:03 51.077823 0.118031 59 3066ft 252kts
23-Sep-20 12:04 51.124578 0.184516 341 3013ft 213kts
23-Sep-20 12:05 51.174961 0.148083 324 3007ft 192kts
23-Sep-20 12:06 51.195617 0.068052 261 1984ft 190kts
23-Sep-20 12:07 51.182647 -0.001680 243 2009ft 153kts
23-Sep-20 12:08 51.167996 -0.061129 247 1526ft 132kts
23-Sep-20 12:09 51.158182 -0.116811 255 651ft 136kts
23-Sep-20 12:10 51.150304 -0.174422 253 231ft 130kts
23-Sep-20 12:11 51.147419 -0.202781 281 207ft 0kts
23-Sep-20 12:12 51.148141 -0.206275 334 207ft 11kts
23-Sep-20 12:13 51.148770 -0.205032 70 207ft 20kts
23-Sep-20 12:14 51.150176 -0.195221 75 207ft 24kts
23-Sep-20 12:15 51.151484 -0.186111 78 207ft 17kts
23-Sep-20 12:16 51.152205 -0.180150 75 207ft 9kts
23-Sep-20 12:17 51.152702 -0.176982 77 207ft 6kts
23-Sep-20 12:18 51.153627 -0.175906 346 207ft 0kts
23-Sep-20 12:19 51.153628 -0.175907 346 207ft 0kts
23-Sep-20 12:20 51.153628 -0.175907 346 207ft 0kts
23-Sep-20 12:21 51.153628 -0.175907 346 207ft 0kts
23-Sep-20 12:22 51.153628 -0.175907 346 207ft 0kts
23-Sep-20 12:23 51.153628 -0.175907 346 207ft 0kts
23-Sep-20 12:24 40.473733 -3.570943 183 2009ft 0kts
23-Sep-20 12:25 40.473733 -3.570943 183 2009ft 0kts

Navigation Log

Ident Type
Flight plan parsing failed, navigation log unavailable